Altamont, Kansas
Current Conditions -  °F | °C
As of 1:52 AM on Tuesday 21 Oct 2014 (Local Time) from KPPF Reporting Station
Haze Haze  
Wind Chill: 50°   Ceiling: Unl
Heat Index: 50°   Visibility: 6mi
Dew Point: 49°   Wind: 0mph
Humidity: 96%   Direction: NA
Pressure: 30.09"   Gusts: NA
Location:  37.19°N, 95.3°W
Report Text: KPPF 210652Z AUTO 00000KT 6SM BR CLR 10/09 A3009 RMK AO2 SLP182 T01000094
Loading
Personal Weather Stations






























Interactive Weather Map
Tropical Storm Tracking
New forecast layout! Learn more

10-Day Weather Forecast

Advertisements
Track Severe Weather on mobile